sensor_id;sensor_type;location;lat;lon;timestamp;temperature;humidity
1524;DHT22;755;53.658;10.118;2023-07-31T00:06:50;14.30;99.90
1524;DHT22;755;53.658;10.118;2023-07-31T00:16:53;14.30;99.90
1524;DHT22;755;53.658;10.118;2023-07-31T00:26:55;14.30;99.90
1524;DHT22;755;53.658;10.118;2023-07-31T00:36:58;14.30;99.90
1524;DHT22;755;53.658;10.118;2023-07-31T00:47:01;14.30;99.90
1524;DHT22;755;53.658;10.118;2023-07-31T00:57:05;14.30;99.90
1524;DHT22;755;53.658;10.118;2023-07-31T01:07:12;14.30;99.90
1524;DHT22;755;53.658;10.118;2023-07-31T01:17:17;14.20;99.90
1524;DHT22;755;53.658;10.118;2023-07-31T01:27:24;14.10;99.90
1524;DHT22;755;53.658;10.118;2023-07-31T01:37:28;14.10;99.90
1524;DHT22;755;53.658;10.118;2023-07-31T01:47:32;14.10;99.90
1524;DHT22;755;53.658;10.118;2023-07-31T01:57:33;14.00;99.90
1524;DHT22;755;53.658;10.118;2023-07-31T02:07:37;14.00;99.90
1524;DHT22;755;53.658;10.118;2023-07-31T02:17:39;14.10;99.90
1524;DHT22;755;53.658;10.118;2023-07-31T02:27:42;14.10;99.90
1524;DHT22;755;53.658;10.118;2023-07-31T02:37:44;14.30;99.90
1524;DHT22;755;53.658;10.118;2023-07-31T02:47:47;14.40;99.90
1524;DHT22;755;53.658;10.118;2023-07-31T02:57:49;14.50;99.90
1524;DHT22;755;53.658;10.118;2023-07-31T03:07:54;14.50;99.90
1524;DHT22;755;53.658;10.118;2023-07-31T03:17:56;14.70;99.90
1524;DHT22;755;53.658;10.118;2023-07-31T03:27:59;14.70;99.90
1524;DHT22;755;53.658;10.118;2023-07-31T03:38:01;14.80;99.90
1524;DHT22;755;53.658;10.118;2023-07-31T03:48:05;14.80;99.90
1524;DHT22;755;53.658;10.118;2023-07-31T03:58:08;14.80;99.90
1524;DHT22;755;53.658;10.118;2023-07-31T04:08:11;14.90;99.90
1524;DHT22;755;53.658;10.118;2023-07-31T04:18:13;15.00;99.90
1524;DHT22;755;53.658;10.118;2023-07-31T04:28:16;15.00;99.90
1524;DHT22;755;53.658;10.118;2023-07-31T04:38:18;15.00;99.90
1524;DHT22;755;53.658;10.118;2023-07-31T04:48:22;15.00;99.90
1524;DHT22;755;53.658;10.118;2023-07-31T04:58:24;15.00;99.90
1524;DHT22;755;53.658;10.118;2023-07-31T05:08:27;15.00;99.90
1524;DHT22;755;53.658;10.118;2023-07-31T05:18:29;15.10;99.90
1524;DHT22;755;53.658;10.118;2023-07-31T05:28:34;15.20;99.90
1524;DHT22;755;53.658;10.118;2023-07-31T05:38:36;15.20;99.90
1524;DHT22;755;53.658;10.118;2023-07-31T05:48:39;15.20;99.90
1524;DHT22;755;53.658;10.118;2023-07-31T05:58:42;15.20;99.90
1524;DHT22;755;53.658;10.118;2023-07-31T06:08:45;15.20;99.90
1524;DHT22;755;53.658;10.118;2023-07-31T06:18:47;15.30;99.90
1524;DHT22;755;53.658;10.118;2023-07-31T06:28:50;15.50;99.90
1524;DHT22;755;53.658;10.118;2023-07-31T06:38:52;15.50;99.90
1524;DHT22;755;53.658;10.118;2023-07-31T06:48:55;15.50;99.90
1524;DHT22;755;53.658;10.118;2023-07-31T06:58:57;15.60;99.90
1524;DHT22;755;53.658;10.118;2023-07-31T07:09:00;15.70;99.90
1524;DHT22;755;53.658;10.118;2023-07-31T07:19:02;15.80;99.90
1524;DHT22;755;53.658;10.118;2023-07-31T07:29:06;15.80;99.90
1524;DHT22;755;53.658;10.118;2023-07-31T07:39:10;15.90;99.90
1524;DHT22;755;53.658;10.118;2023-07-31T07:49:13;15.80;99.90
1524;DHT22;755;53.658;10.118;2023-07-31T07:59:15;15.80;99.90
1524;DHT22;755;53.658;10.118;2023-07-31T08:09:18;15.90;99.90
1524;DHT22;755;53.658;10.118;2023-07-31T08:19:20;16.10;99.90
1524;DHT22;755;53.658;10.118;2023-07-31T08:29:25;16.30;99.90
1524;DHT22;755;53.658;10.118;2023-07-31T08:39:27;16.40;99.90
1524;DHT22;755;53.658;10.118;2023-07-31T08:49:30;16.70;99.90
1524;DHT22;755;53.658;10.118;2023-07-31T08:59:34;16.70;99.90
1524;DHT22;755;53.658;10.118;2023-07-31T09:09:38;16.80;99.90
1524;DHT22;755;53.658;10.118;2023-07-31T09:19:40;16.80;99.90
1524;DHT22;755;53.658;10.118;2023-07-31T09:29:43;17.00;99.90
1524;DHT22;755;53.658;10.118;2023-07-31T09:39:46;17.20;99.90
1524;DHT22;755;53.658;10.118;2023-07-31T09:49:50;17.10;99.90
1524;DHT22;755;53.658;10.118;2023-07-31T09:59:52;17.10;99.90
1524;DHT22;755;53.658;10.118;2023-07-31T10:09:58;17.10;99.90
1524;DHT22;755;53.658;10.118;2023-07-31T10:20:02;16.80;99.90
1524;DHT22;755;53.658;10.118;2023-07-31T10:30:09;17.00;99.90
1524;DHT22;755;53.658;10.118;2023-07-31T10:40:15;17.10;99.90
1524;DHT22;755;53.658;10.118;2023-07-31T10:50:20;17.20;99.90
1524;DHT22;755;53.658;10.118;2023-07-31T11:00:36;17.00;99.90
1524;DHT22;755;53.658;10.118;2023-07-31T11:10:46;17.20;99.90
1524;DHT22;755;53.658;10.118;2023-07-31T11:20:48;16.70;99.90
1524;DHT22;755;53.658;10.118;2023-07-31T11:30:52;16.70;99.90
1524;DHT22;755;53.658;10.118;2023-07-31T11:40:55;16.70;99.90
1524;DHT22;755;53.658;10.118;2023-07-31T11:50:59;16.60;99.90
1524;DHT22;755;53.658;10.118;2023-07-31T12:01:02;16.30;99.90
1524;DHT22;755;53.658;10.118;2023-07-31T12:11:08;16.10;99.90
1524;DHT22;755;53.658;10.118;2023-07-31T12:21:10;16.40;99.90
1524;DHT22;755;53.658;10.118;2023-07-31T12:31:16;16.30;99.90
1524;DHT22;755;53.658;10.118;2023-07-31T12:41:18;16.40;99.90
1524;DHT22;755;53.658;10.118;2023-07-31T12:51:22;16.00;99.90
1524;DHT22;755;53.658;10.118;2023-07-31T13:01:23;16.10;99.90
1524;DHT22;755;53.658;10.118;2023-07-31T13:11:27;15.90;99.90
1524;DHT22;755;53.658;10.118;2023-07-31T13:21:29;16.10;99.90
1524;DHT22;755;53.658;10.118;2023-07-31T13:31:32;16.10;99.90
1524;DHT22;755;53.658;10.118;2023-07-31T13:41:34;16.50;99.90
1524;DHT22;755;53.658;10.118;2023-07-31T13:51:37;16.50;99.90
1524;DHT22;755;53.658;10.118;2023-07-31T14:01:40;16.30;99.90
1524;DHT22;755;53.658;10.118;2023-07-31T14:11:43;16.30;99.90
1524;DHT22;755;53.658;10.118;2023-07-31T14:21:45;16.20;99.90
1524;DHT22;755;53.658;10.118;2023-07-31T14:31:48;16.40;99.90
1524;DHT22;755;53.658;10.118;2023-07-31T14:41:50;16.20;99.90
1524;DHT22;755;53.658;10.118;2023-07-31T14:51:54;16.40;99.90
1524;DHT22;755;53.658;10.118;2023-07-31T15:01:56;16.40;99.90
1524;DHT22;755;53.658;10.118;2023-07-31T15:11:59;16.60;99.90
1524;DHT22;755;53.658;10.118;2023-07-31T15:22:01;16.20;99.90
1524;DHT22;755;53.658;10.118;2023-07-31T15:32:06;16.40;99.90
1524;DHT22;755;53.658;10.118;2023-07-31T15:42:08;16.60;99.90
1524;DHT22;755;53.658;10.118;2023-07-31T15:52:12;16.40;99.90
1524;DHT22;755;53.658;10.118;2023-07-31T16:02:13;16.20;99.90
1524;DHT22;755;53.658;10.118;2023-07-31T16:12:17;16.50;99.90
1524;DHT22;755;53.658;10.118;2023-07-31T16:22:19;16.10;99.90
1524;DHT22;755;53.658;10.118;2023-07-31T16:32:22;16.10;99.90
1524;DHT22;755;53.658;10.118;2023-07-31T16:42:24;16.60;99.90
1524;DHT22;755;53.658;10.118;2023-07-31T16:52:27;16.90;99.90
1524;DHT22;755;53.658;10.118;2023-07-31T17:02:29;16.90;99.90
1524;DHT22;755;53.658;10.118;2023-07-31T17:12:33;17.10;99.90
1524;DHT22;755;53.658;10.118;2023-07-31T17:22:34;17.20;99.90
1524;DHT22;755;53.658;10.118;2023-07-31T17:32:38;17.20;99.90
1524;DHT22;755;53.658;10.118;2023-07-31T17:42:40;17.30;99.90
1524;DHT22;755;53.658;10.118;2023-07-31T17:52:43;17.40;99.90
1524;DHT22;755;53.658;10.118;2023-07-31T18:02:45;17.50;99.90
1524;DHT22;755;53.658;10.118;2023-07-31T18:12:48;17.50;99.90
1524;DHT22;755;53.658;10.118;2023-07-31T18:22:50;17.40;99.90
1524;DHT22;755;53.658;10.118;2023-07-31T18:32:53;17.40;99.90
1524;DHT22;755;53.658;10.118;2023-07-31T18:42:56;17.40;99.90
1524;DHT22;755;53.658;10.118;2023-07-31T18:52:59;17.40;99.90
1524;DHT22;755;53.658;10.118;2023-07-31T19:03:01;17.40;99.90
1524;DHT22;755;53.658;10.118;2023-07-31T19:13:05;17.40;99.90
1524;DHT22;755;53.658;10.118;2023-07-31T19:23:07;17.30;99.90
1524;DHT22;755;53.658;10.118;2023-07-31T19:33:10;17.30;99.90
1524;DHT22;755;53.658;10.118;2023-07-31T19:43:14;17.40;99.90
1524;DHT22;755;53.658;10.118;2023-07-31T19:53:17;17.30;99.90
1524;DHT22;755;53.658;10.118;2023-07-31T20:03:19;17.30;99.90
1524;DHT22;755;53.658;10.118;2023-07-31T20:13:22;17.20;99.90
1524;DHT22;755;53.658;10.118;2023-07-31T20:23:24;17.20;99.90
1524;DHT22;755;53.658;10.118;2023-07-31T20:33:27;17.10;99.90
1524;DHT22;755;53.658;10.118;2023-07-31T20:43:29;17.10;99.90
1524;DHT22;755;53.658;10.118;2023-07-31T20:53:33;17.10;99.90
1524;DHT22;755;53.658;10.118;2023-07-31T21:03:35;17.10;99.90
1524;DHT22;755;53.658;10.118;2023-07-31T21:13:38;17.10;99.90
1524;DHT22;755;53.658;10.118;2023-07-31T21:23:40;17.00;99.90
1524;DHT22;755;53.658;10.118;2023-07-31T21:33:43;17.10;99.90
1524;DHT22;755;53.658;10.118;2023-07-31T21:43:45;17.00;99.90
1524;DHT22;755;53.658;10.118;2023-07-31T21:53:48;17.00;99.90
1524;DHT22;755;53.658;10.118;2023-07-31T22:03:50;16.90;99.90
1524;DHT22;755;53.658;10.118;2023-07-31T22:13:55;16.70;99.90
1524;DHT22;755;53.658;10.118;2023-07-31T22:23:57;16.70;99.90
1524;DHT22;755;53.658;10.118;2023-07-31T22:34:00;16.70;99.90
1524;DHT22;755;53.658;10.118;2023-07-31T22:44:02;16.60;99.90
1524;DHT22;755;53.658;10.118;2023-07-31T22:54:05;16.50;99.90
1524;DHT22;755;53.658;10.118;2023-07-31T23:04:07;16.40;99.90
1524;DHT22;755;53.658;10.118;2023-07-31T23:14:11;16.30;99.90
1524;DHT22;755;53.658;10.118;2023-07-31T23:24:13;16.40;99.90
1524;DHT22;755;53.658;10.118;2023-07-31T23:34:16;16.50;99.90
1524;DHT22;755;53.658;10.118;2023-07-31T23:44:18;16.50;99.90
1524;DHT22;755;53.658;10.118;2023-07-31T23:54:21;16.20;99.90
